sensor_id;sensor_type;location;lat;lon;timestamp;pressure;altitude;pressure_sealevel;temperature;humidity
6134;BME280;3098;42.678;23.364;2023-06-19T00:00:20;95002.97;;;17.55;100.00
6134;BME280;3098;42.678;23.364;2023-06-19T00:02:47;95037.47;;;17.72;100.00
6134;BME280;3098;42.678;23.364;2023-06-19T00:05:14;94990.06;;;17.45;100.00
6134;BME280;3098;42.678;23.364;2023-06-19T00:07:41;95021.03;;;17.58;100.00
6134;BME280;3098;42.678;23.364;2023-06-19T00:10:10;94870.44;;;16.43;100.00
6134;BME280;3098;42.678;23.364;2023-06-19T00:12:37;95033.91;;;17.53;100.00
6134;BME280;3098;42.678;23.364;2023-06-19T00:15:04;95019.03;;;17.40;100.00
6134;BME280;3098;42.678;23.364;2023-06-19T00:17:33;95019.38;;;17.38;100.00
6134;BME280;3098;42.678;23.364;2023-06-19T00:20:03;95015.59;;;17.39;100.00
6134;BME280;3098;42.678;23.364;2023-06-19T00:22:31;94973.06;;;17.06;100.00
6134;BME280;3098;42.678;23.364;2023-06-19T00:24:57;94978.78;;;17.05;100.00
6134;BME280;3098;42.678;23.364;2023-06-19T00:27:26;94997.19;;;17.22;100.00
6134;BME280;3098;42.678;23.364;2023-06-19T00:29:53;95003.22;;;17.19;100.00
6134;BME280;3098;42.678;23.364;2023-06-19T00:32:20;95017.66;;;17.30;100.00
6134;BME280;3098;42.678;23.364;2023-06-19T00:34:47;94997.63;;;17.08;100.00
6134;BME280;3098;42.678;23.364;2023-06-19T00:37:14;94992.84;;;17.02;100.00
6134;BME280;3098;42.678;23.364;2023-06-19T00:39:41;95011.44;;;17.10;100.00
6134;BME280;3098;42.678;23.364;2023-06-19T00:42:08;95020.44;;;17.02;100.00
6134;BME280;3098;42.678;23.364;2023-06-19T00:44:36;95019.22;;;17.00;100.00
6134;BME280;3098;42.678;23.364;2023-06-19T00:47:04;95015.16;;;16.90;100.00
6134;BME280;3098;42.678;23.364;2023-06-19T00:49:31;95004.59;;;16.82;100.00
6134;BME280;3098;42.678;23.364;2023-06-19T00:51:59;95013.06;;;16.84;100.00
6134;BME280;3098;42.678;23.364;2023-06-19T00:54:26;95001.81;;;16.78;100.00
6134;BME280;3098;42.678;23.364;2023-06-19T00:56:53;94992.22;;;16.61;100.00
6134;BME280;3098;42.678;23.364;2023-06-19T00:59:20;95004.22;;;16.67;100.00
6134;BME280;3098;42.678;23.364;2023-06-19T01:01:49;95003.28;;;16.60;100.00
6134;BME280;3098;42.678;23.364;2023-06-19T01:04:16;94994.47;;;16.59;100.00
6134;BME280;3098;42.678;23.364;2023-06-19T01:06:52;94970.44;;;16.35;100.00
6134;BME280;3098;42.678;23.364;2023-06-19T01:09:28;94976.03;;;16.30;100.00
6134;BME280;3098;42.678;23.364;2023-06-19T01:11:59;94976.16;;;16.34;100.00
6134;BME280;3098;42.678;23.364;2023-06-19T01:14:31;94964.38;;;16.23;100.00
6134;BME280;3098;42.678;23.364;2023-06-19T01:17:03;94991.63;;;16.40;100.00
6134;BME280;3098;42.678;23.364;2023-06-19T01:19:30;94960.28;;;16.13;100.00
6134;BME280;3098;42.678;23.364;2023-06-19T01:22:01;94975.66;;;16.16;100.00
6134;BME280;3098;42.678;23.364;2023-06-19T01:24:28;94993.22;;;16.29;100.00
6134;BME280;3098;42.678;23.364;2023-06-19T01:26:55;94992.25;;;16.22;100.00
6134;BME280;3098;42.678;23.364;2023-06-19T01:29:22;94988.88;;;16.25;100.00
6134;BME280;3098;42.678;23.364;2023-06-19T01:31:54;94986.78;;;16.18;100.00
6134;BME280;3098;42.678;23.364;2023-06-19T01:34:26;94984.72;;;16.12;100.00
6134;BME280;3098;42.678;23.364;2023-06-19T01:36:54;94983.53;;;15.97;100.00
6134;BME280;3098;42.678;23.364;2023-06-19T01:39:24;95002.41;;;16.16;100.00
6134;BME280;3098;42.678;23.364;2023-06-19T01:41:52;95004.97;;;16.13;100.00
6134;BME280;3098;42.678;23.364;2023-06-19T01:44:21;95008.25;;;16.06;100.00
6134;BME280;3098;42.678;23.364;2023-06-19T01:46:49;95009.47;;;16.08;100.00
6134;BME280;3098;42.678;23.364;2023-06-19T01:49:16;95011.47;;;16.12;100.00
6134;BME280;3098;42.678;23.364;2023-06-19T01:51:43;95000.22;;;16.06;100.00
6134;BME280;3098;42.678;23.364;2023-06-19T01:54:10;95000.41;;;16.13;100.00
6134;BME280;3098;42.678;23.364;2023-06-19T01:56:38;95006.25;;;16.03;100.00
6134;BME280;3098;42.678;23.364;2023-06-19T01:59:06;94973.91;;;15.68;100.00
6134;BME280;3098;42.678;23.364;2023-06-19T02:01:33;95012.84;;;15.93;100.00
6134;BME280;3098;42.678;23.364;2023-06-19T02:04:01;95012.66;;;15.86;100.00
6134;BME280;3098;42.678;23.364;2023-06-19T02:06:29;95010.31;;;15.73;100.00
6134;BME280;3098;42.678;23.364;2023-06-19T02:08:56;95021.91;;;15.77;100.00
6134;BME280;3098;42.678;23.364;2023-06-19T02:11:23;95007.09;;;15.67;100.00
6134;BME280;3098;42.678;23.364;2023-06-19T02:13:51;95013.47;;;15.63;100.00
6134;BME280;3098;42.678;23.364;2023-06-19T02:16:18;94965.13;;;15.31;100.00
6134;BME280;3098;42.678;23.364;2023-06-19T02:18:45;95017.47;;;15.69;100.00
6134;BME280;3098;42.678;23.364;2023-06-19T02:21:12;94983.41;;;15.29;100.00
6134;BME280;3098;42.678;23.364;2023-06-19T02:23:39;95027.06;;;15.58;100.00
6134;BME280;3098;42.678;23.364;2023-06-19T02:26:05;95020.63;;;15.46;100.00
6134;BME280;3098;42.678;23.364;2023-06-19T02:28:32;95035.97;;;15.62;100.00
6134;BME280;3098;42.678;23.364;2023-06-19T02:31:00;95023.81;;;15.40;100.00
6134;BME280;3098;42.678;23.364;2023-06-19T02:33:27;95047.50;;;15.41;100.00
6134;BME280;3098;42.678;23.364;2023-06-19T02:35:55;95032.94;;;15.39;100.00
6134;BME280;3098;42.678;23.364;2023-06-19T02:38:24;95045.50;;;15.38;100.00
6134;BME280;3098;42.678;23.364;2023-06-19T02:40:51;95033.03;;;15.42;100.00
6134;BME280;3098;42.678;23.364;2023-06-19T02:43:18;95019.25;;;15.28;100.00
6134;BME280;3098;42.678;23.364;2023-06-19T02:45:45;95047.19;;;15.43;100.00
6134;BME280;3098;42.678;23.364;2023-06-19T02:48:13;95030.69;;;15.17;100.00
6134;BME280;3098;42.678;23.364;2023-06-19T02:50:40;95025.03;;;15.06;100.00
6134;BME280;3098;42.678;23.364;2023-06-19T02:53:07;95023.00;;;15.03;100.00
6134;BME280;3098;42.678;23.364;2023-06-19T02:55:34;95056.84;;;15.35;100.00
6134;BME280;3098;42.678;23.364;2023-06-19T02:58:01;94997.63;;;14.97;100.00
6134;BME280;3098;42.678;23.364;2023-06-19T03:00:28;95064.22;;;15.38;100.00
6134;BME280;3098;42.678;23.364;2023-06-19T03:02:55;95054.88;;;15.32;100.00
6134;BME280;3098;42.678;23.364;2023-06-19T03:05:24;95053.72;;;15.21;100.00
6134;BME280;3098;42.678;23.364;2023-06-19T03:07:52;95020.00;;;15.05;100.00
6134;BME280;3098;42.678;23.364;2023-06-19T03:10:19;95055.44;;;15.38;100.00
6134;BME280;3098;42.678;23.364;2023-06-19T03:12:46;95046.66;;;15.62;100.00
6134;BME280;3098;42.678;23.364;2023-06-19T03:15:13;95041.84;;;15.91;100.00
6134;BME280;3098;42.678;23.364;2023-06-19T03:17:39;95028.53;;;16.07;100.00
6134;BME280;3098;42.678;23.364;2023-06-19T03:20:07;95061.66;;;16.42;100.00
6134;BME280;3098;42.678;23.364;2023-06-19T03:22:40;94945.41;;;16.00;100.00
6134;BME280;3098;42.678;23.364;2023-06-19T03:25:08;95023.00;;;16.83;100.00
6134;BME280;3098;42.678;23.364;2023-06-19T03:27:35;95015.59;;;17.23;100.00
6134;BME280;3098;42.678;23.364;2023-06-19T03:30:02;94977.38;;;17.27;100.00
6134;BME280;3098;42.678;23.364;2023-06-19T03:32:31;95029.13;;;17.77;100.00
6134;BME280;3098;42.678;23.364;2023-06-19T03:34:58;95042.16;;;18.29;100.00
6134;BME280;3098;42.678;23.364;2023-06-19T03:37:25;95035.00;;;18.37;100.00
6134;BME280;3098;42.678;23.364;2023-06-19T03:39:54;95025.47;;;18.78;100.00
6134;BME280;3098;42.678;23.364;2023-06-19T03:42:21;95029.06;;;19.31;100.00
6134;BME280;3098;42.678;23.364;2023-06-19T03:44:47;95022.94;;;19.79;100.00
6134;BME280;3098;42.678;23.364;2023-06-19T03:47:15;94980.41;;;19.88;100.00
6134;BME280;3098;42.678;23.364;2023-06-19T03:49:42;95031.81;;;20.69;100.00
6134;BME280;3098;42.678;23.364;2023-06-19T03:52:09;95009.94;;;20.78;100.00
6134;BME280;3098;42.678;23.364;2023-06-19T03:54:36;95030.00;;;21.13;100.00
6134;BME280;3098;42.678;23.364;2023-06-19T03:57:05;95026.34;;;21.36;100.00
6134;BME280;3098;42.678;23.364;2023-06-19T03:59:33;95027.28;;;22.12;96.50
6134;BME280;3098;42.678;23.364;2023-06-19T04:02:00;95026.72;;;22.50;91.73
6134;BME280;3098;42.678;23.364;2023-06-19T04:04:27;95010.63;;;22.78;87.24
6134;BME280;3098;42.678;23.364;2023-06-19T04:06:54;95028.84;;;23.06;85.09
6134;BME280;3098;42.678;23.364;2023-06-19T04:09:21;95014.16;;;23.14;84.82
6134;BME280;3098;42.678;23.364;2023-06-19T04:11:48;95015.72;;;23.36;82.42
6134;BME280;3098;42.678;23.364;2023-06-19T04:14:16;95023.09;;;23.64;80.43
6134;BME280;3098;42.678;23.364;2023-06-19T04:16:43;95023.50;;;23.70;81.47
6134;BME280;3098;42.678;23.364;2023-06-19T04:19:10;95023.41;;;24.33;74.99
6134;BME280;3098;42.678;23.364;2023-06-19T04:21:38;94990.75;;;24.65;71.15
6134;BME280;3098;42.678;23.364;2023-06-19T04:24:05;94941.47;;;23.83;70.84
6134;BME280;3098;42.678;23.364;2023-06-19T04:26:34;94990.44;;;24.49;68.78
6134;BME280;3098;42.678;23.364;2023-06-19T04:29:02;95016.66;;;25.42;63.93
6134;BME280;3098;42.678;23.364;2023-06-19T04:31:30;95017.94;;;25.79;60.97
6134;BME280;3098;42.678;23.364;2023-06-19T04:33:57;95025.75;;;25.77;60.19
6134;BME280;3098;42.678;23.364;2023-06-19T04:36:24;95018.78;;;25.68;59.07
6134;BME280;3098;42.678;23.364;2023-06-19T04:38:51;95015.22;;;25.27;60.10
6134;BME280;3098;42.678;23.364;2023-06-19T04:41:18;95021.31;;;24.73;61.19
6134;BME280;3098;42.678;23.364;2023-06-19T04:43:45;95026.59;;;23.86;62.90
6134;BME280;3098;42.678;23.364;2023-06-19T04:46:12;95020.41;;;23.68;65.09
6134;BME280;3098;42.678;23.364;2023-06-19T04:48:40;94993.31;;;23.89;61.92
6134;BME280;3098;42.678;23.364;2023-06-19T04:51:07;95021.00;;;24.56;60.72
6134;BME280;3098;42.678;23.364;2023-06-19T04:53:33;94964.09;;;25.15;59.02
6134;BME280;3098;42.678;23.364;2023-06-19T04:56:00;95018.72;;;25.79;56.26
6134;BME280;3098;42.678;23.364;2023-06-19T04:58:27;95011.91;;;27.03;52.84
6134;BME280;3098;42.678;23.364;2023-06-19T05:00:54;95018.94;;;27.57;50.12
6134;BME280;3098;42.678;23.364;2023-06-19T05:03:21;95017.34;;;26.42;51.16
6134;BME280;3098;42.678;23.364;2023-06-19T05:05:50;95009.53;;;25.04;55.12
6134;BME280;3098;42.678;23.364;2023-06-19T05:08:17;95015.28;;;25.20;55.96
6134;BME280;3098;42.678;23.364;2023-06-19T05:10:44;95002.09;;;26.14;54.87
6134;BME280;3098;42.678;23.364;2023-06-19T05:13:11;94988.16;;;25.68;53.30
6134;BME280;3098;42.678;23.364;2023-06-19T05:15:38;94993.75;;;25.43;54.67
6134;BME280;3098;42.678;23.364;2023-06-19T05:18:05;95014.41;;;25.34;54.94
6134;BME280;3098;42.678;23.364;2023-06-19T05:20:31;95009.69;;;24.83;56.38
6134;BME280;3098;42.678;23.364;2023-06-19T05:23:00;94964.41;;;24.62;55.22
6134;BME280;3098;42.678;23.364;2023-06-19T05:25:27;94984.69;;;25.12;55.00
6134;BME280;3098;42.678;23.364;2023-06-19T05:27:54;95024.84;;;25.39;54.89
6134;BME280;3098;42.678;23.364;2023-06-19T05:30:21;95034.47;;;27.03;51.36
6134;BME280;3098;42.678;23.364;2023-06-19T05:32:48;94996.94;;;27.18;49.61
6134;BME280;3098;42.678;23.364;2023-06-19T05:35:15;95039.25;;;27.53;48.76
6134;BME280;3098;42.678;23.364;2023-06-19T05:37:42;95053.38;;;27.14;47.55
6134;BME280;3098;42.678;23.364;2023-06-19T05:40:11;95047.00;;;27.54;48.02
6134;BME280;3098;42.678;23.364;2023-06-19T05:42:39;95048.53;;;28.48;45.90
6134;BME280;3098;42.678;23.364;2023-06-19T05:45:07;95008.59;;;28.58;45.79
6134;BME280;3098;42.678;23.364;2023-06-19T05:47:34;95027.75;;;27.88;45.47
6134;BME280;3098;42.678;23.364;2023-06-19T05:50:01;95011.91;;;27.03;46.86
6134;BME280;3098;42.678;23.364;2023-06-19T05:52:28;95033.19;;;26.85;47.22
6134;BME280;3098;42.678;23.364;2023-06-19T05:54:55;95020.56;;;27.24;47.47
6134;BME280;3098;42.678;23.364;2023-06-19T05:57:24;94904.13;;;26.52;48.07
6134;BME280;3098;42.678;23.364;2023-06-19T05:59:51;94982.34;;;28.44;44.31
6134;BME280;3098;42.678;23.364;2023-06-19T06:02:20;94992.47;;;29.19;42.99
6134;BME280;3098;42.678;23.364;2023-06-19T06:04:48;95047.03;;;29.58;41.80
6134;BME280;3098;42.678;23.364;2023-06-19T06:07:15;94999.84;;;27.57;44.26
6134;BME280;3098;42.678;23.364;2023-06-19T06:09:43;94897.16;;;26.77;44.91
6134;BME280;3098;42.678;23.364;2023-06-19T06:12:09;95031.25;;;27.88;44.70
6134;BME280;3098;42.678;23.364;2023-06-19T06:14:39;95061.09;;;28.65;43.04
6134;BME280;3098;42.678;23.364;2023-06-19T06:17:06;95006.88;;;27.28;44.83
6134;BME280;3098;42.678;23.364;2023-06-19T06:19:33;95036.28;;;27.90;43.65
6134;BME280;3098;42.678;23.364;2023-06-19T06:22:02;95061.19;;;29.17;42.16
6134;BME280;3098;42.678;23.364;2023-06-19T06:24:29;95056.91;;;28.37;43.83
6134;BME280;3098;42.678;23.364;2023-06-19T06:26:56;95034.19;;;27.51;43.89
6134;BME280;3098;42.678;23.364;2023-06-19T06:29:24;95038.84;;;27.77;45.46
6134;BME280;3098;42.678;23.364;2023-06-19T06:32:02;95007.41;;;28.78;42.61
6134;BME280;3098;42.678;23.364;2023-06-19T06:34:31;95061.00;;;27.79;44.95
6134;BME280;3098;42.678;23.364;2023-06-19T06:36:58;95064.78;;;28.12;44.69
6134;BME280;3098;42.678;23.364;2023-06-19T06:39:25;95064.34;;;27.37;45.57
6134;BME280;3098;42.678;23.364;2023-06-19T06:41:52;94990.63;;;25.93;47.58
6134;BME280;3098;42.678;23.364;2023-06-19T06:44:19;95060.41;;;27.91;45.55
6134;BME280;3098;42.678;23.364;2023-06-19T06:46:46;95061.94;;;29.18;42.49
6134;BME280;3098;42.678;23.364;2023-06-19T06:49:15;95069.25;;;28.45;42.60
6134;BME280;3098;42.678;23.364;2023-06-19T06:51:42;95064.81;;;28.32;43.70
6134;BME280;3098;42.678;23.364;2023-06-19T06:54:09;95067.16;;;28.73;42.40
6134;BME280;3098;42.678;23.364;2023-06-19T06:56:36;95035.41;;;28.82;41.64
6134;BME280;3098;42.678;23.364;2023-06-19T06:59:03;95061.00;;;29.28;41.63
6134;BME280;3098;42.678;23.364;2023-06-19T07:01:30;95038.81;;;29.58;41.07
6134;BME280;3098;42.678;23.364;2023-06-19T07:03:57;95065.16;;;30.16;40.25
6134;BME280;3098;42.678;23.364;2023-06-19T07:06:25;94882.34;;;28.73;39.82
6134;BME280;3098;42.678;23.364;2023-06-19T07:08:52;95066.72;;;29.33;40.53
6134;BME280;3098;42.678;23.364;2023-06-19T07:11:19;95068.47;;;30.24;40.08
6134;BME280;3098;42.678;23.364;2023-06-19T07:13:46;95061.34;;;29.10;41.03
6134;BME280;3098;42.678;23.364;2023-06-19T07:16:13;95063.69;;;28.92;41.70
6134;BME280;3098;42.678;23.364;2023-06-19T07:18:40;95060.69;;;28.86;41.88
6134;BME280;3098;42.678;23.364;2023-06-19T07:21:11;95023.78;;;29.34;40.99
6134;BME280;3098;42.678;23.364;2023-06-19T07:23:41;95033.06;;;29.88;40.46
6134;BME280;3098;42.678;23.364;2023-06-19T07:26:09;95047.03;;;30.23;40.10
6134;BME280;3098;42.678;23.364;2023-06-19T07:28:36;95028.94;;;29.80;39.68
6134;BME280;3098;42.678;23.364;2023-06-19T07:31:03;95057.06;;;29.97;38.95
6134;BME280;3098;42.678;23.364;2023-06-19T07:33:31;95062.59;;;30.42;38.30
6134;BME280;3098;42.678;23.364;2023-06-19T07:35:57;95070.09;;;29.57;39.54
6134;BME280;3098;42.678;23.364;2023-06-19T07:38:24;95033.75;;;29.24;39.90
6134;BME280;3098;42.678;23.364;2023-06-19T07:40:52;95048.31;;;29.70;38.81
6134;BME280;3098;42.678;23.364;2023-06-19T07:43:19;95058.91;;;29.51;39.08
6134;BME280;3098;42.678;23.364;2023-06-19T07:45:47;95032.38;;;29.84;39.56
6134;BME280;3098;42.678;23.364;2023-06-19T07:48:14;95063.75;;;29.44;39.44
6134;BME280;3098;42.678;23.364;2023-06-19T07:50:42;95069.59;;;31.00;38.53
6134;BME280;3098;42.678;23.364;2023-06-19T07:53:09;95055.69;;;31.07;36.76
6134;BME280;3098;42.678;23.364;2023-06-19T07:55:36;95044.13;;;31.54;34.91
6134;BME280;3098;42.678;23.364;2023-06-19T07:58:04;95068.56;;;33.02;32.89
6134;BME280;3098;42.678;23.364;2023-06-19T08:00:31;95069.31;;;31.99;33.40
6134;BME280;3098;42.678;23.364;2023-06-19T08:02:58;95067.38;;;30.66;35.34
6134;BME280;3098;42.678;23.364;2023-06-19T08:05:25;95070.91;;;30.80;36.27
6134;BME280;3098;42.678;23.364;2023-06-19T08:07:51;95047.13;;;30.64;35.66
6134;BME280;3098;42.678;23.364;2023-06-19T08:10:19;95076.53;;;30.76;34.77
6134;BME280;3098;42.678;23.364;2023-06-19T08:12:46;95066.47;;;29.96;34.83
6134;BME280;3098;42.678;23.364;2023-06-19T08:15:14;95018.47;;;29.07;36.83
6134;BME280;3098;42.678;23.364;2023-06-19T08:17:41;95040.19;;;29.50;35.91
6134;BME280;3098;42.678;23.364;2023-06-19T08:20:09;95054.03;;;30.24;35.68
6134;BME280;3098;42.678;23.364;2023-06-19T08:22:36;95033.38;;;29.74;36.14
6134;BME280;3098;42.678;23.364;2023-06-19T08:25:06;95052.34;;;29.65;37.30
6134;BME280;3098;42.678;23.364;2023-06-19T08:27:33;95065.75;;;29.76;37.46
6134;BME280;3098;42.678;23.364;2023-06-19T08:30:00;95066.50;;;30.41;34.96
6134;BME280;3098;42.678;23.364;2023-06-19T08:32:28;95070.06;;;31.37;33.60
6134;BME280;3098;42.678;23.364;2023-06-19T08:34:55;95055.13;;;29.45;34.82
6134;BME280;3098;42.678;23.364;2023-06-19T08:37:23;95052.06;;;28.88;37.47
6134;BME280;3098;42.678;23.364;2023-06-19T08:39:50;95054.03;;;29.59;36.72
6134;BME280;3098;42.678;23.364;2023-06-19T08:42:17;95071.38;;;30.78;35.24
6134;BME280;3098;42.678;23.364;2023-06-19T08:44:44;95068.06;;;30.42;35.67
6134;BME280;3098;42.678;23.364;2023-06-19T08:47:10;95065.69;;;31.26;34.03
6134;BME280;3098;42.678;23.364;2023-06-19T08:49:39;95019.72;;;29.74;34.85
6134;BME280;3098;42.678;23.364;2023-06-19T08:52:07;95064.16;;;30.55;34.37
6134;BME280;3098;42.678;23.364;2023-06-19T08:54:34;94991.34;;;29.68;33.91
6134;BME280;3098;42.678;23.364;2023-06-19T08:57:09;95042.75;;;30.22;33.89
6134;BME280;3098;42.678;23.364;2023-06-19T08:59:37;95067.97;;;30.29;34.51
6134;BME280;3098;42.678;23.364;2023-06-19T09:02:05;95063.16;;;31.19;34.07
6134;BME280;3098;42.678;23.364;2023-06-19T09:04:32;95046.28;;;31.21;33.75
6134;BME280;3098;42.678;23.364;2023-06-19T09:07:02;95046.81;;;30.46;34.15
6134;BME280;3098;42.678;23.364;2023-06-19T09:09:30;95041.09;;;29.43;35.72
6134;BME280;3098;42.678;23.364;2023-06-19T09:11:59;95061.19;;;30.79;35.44
6134;BME280;3098;42.678;23.364;2023-06-19T09:14:33;95068.84;;;31.12;33.60
6134;BME280;3098;42.678;23.364;2023-06-19T09:17:01;94952.16;;;30.61;33.64
6134;BME280;3098;42.678;23.364;2023-06-19T09:19:29;95029.50;;;31.82;31.35
6134;BME280;3098;42.678;23.364;2023-06-19T09:22:01;95049.59;;;31.54;32.09
6134;BME280;3098;42.678;23.364;2023-06-19T09:24:34;95037.72;;;31.06;33.32
6134;BME280;3098;42.678;23.364;2023-06-19T09:27:08;95052.34;;;30.58;33.67
6134;BME280;3098;42.678;23.364;2023-06-19T09:29:39;95045.63;;;31.04;32.84
6134;BME280;3098;42.678;23.364;2023-06-19T09:32:17;95050.94;;;31.49;33.59
6134;BME280;3098;42.678;23.364;2023-06-19T09:34:44;95042.50;;;30.61;33.64
6134;BME280;3098;42.678;23.364;2023-06-19T09:37:12;95050.13;;;30.82;32.39
6134;BME280;3098;42.678;23.364;2023-06-19T09:39:40;95059.06;;;30.41;32.46
6134;BME280;3098;42.678;23.364;2023-06-19T09:42:08;95027.31;;;27.43;38.02
6134;BME280;3098;42.678;23.364;2023-06-19T09:44:40;95008.91;;;28.63;35.83
6134;BME280;3098;42.678;23.364;2023-06-19T09:47:14;95052.03;;;28.48;35.36
6134;BME280;3098;42.678;23.364;2023-06-19T09:49:48;94997.81;;;28.70;34.77
6134;BME280;3098;42.678;23.364;2023-06-19T09:52:20;95048.91;;;30.09;34.31
6134;BME280;3098;42.678;23.364;2023-06-19T09:54:47;95003.53;;;29.31;35.35
6134;BME280;3098;42.678;23.364;2023-06-19T09:57:16;94997.97;;;28.63;36.07
6134;BME280;3098;42.678;23.364;2023-06-19T09:59:46;94986.75;;;29.81;35.32
6134;BME280;3098;42.678;23.364;2023-06-19T10:02:15;95041.63;;;30.64;34.65
6134;BME280;3098;42.678;23.364;2023-06-19T10:04:43;95005.34;;;30.31;34.13
6134;BME280;3098;42.678;23.364;2023-06-19T10:07:20;95049.16;;;30.60;34.18
6134;BME280;3098;42.678;23.364;2023-06-19T10:09:58;95038.19;;;30.89;33.93
6134;BME280;3098;42.678;23.364;2023-06-19T10:12:40;95020.84;;;31.83;32.48
6134;BME280;3098;42.678;23.364;2023-06-19T10:15:09;95025.13;;;30.80;34.06
6134;BME280;3098;42.678;23.364;2023-06-19T10:17:36;95021.34;;;29.88;33.84
6134;BME280;3098;42.678;23.364;2023-06-19T10:20:04;95003.47;;;29.67;33.33
6134;BME280;3098;42.678;23.364;2023-06-19T10:22:50;95026.97;;;30.99;32.19
6134;BME280;3098;42.678;23.364;2023-06-19T10:25:22;95022.25;;;30.71;32.82
6134;BME280;3098;42.678;23.364;2023-06-19T10:27:49;95013.88;;;29.72;34.20
6134;BME280;3098;42.678;23.364;2023-06-19T10:30:18;94978.78;;;29.87;33.13
6134;BME280;3098;42.678;23.364;2023-06-19T10:32:46;94962.69;;;30.34;33.56
6134;BME280;3098;42.678;23.364;2023-06-19T10:35:14;95016.03;;;31.24;33.23
6134;BME280;3098;42.678;23.364;2023-06-19T10:37:43;94917.53;;;29.20;33.32
6134;BME280;3098;42.678;23.364;2023-06-19T10:40:11;95000.41;;;29.81;33.82
6134;BME280;3098;42.678;23.364;2023-06-19T10:42:38;95010.94;;;27.70;35.98
6134;BME280;3098;42.678;23.364;2023-06-19T10:45:07;95017.19;;;27.44;38.24
6134;BME280;3098;42.678;23.364;2023-06-19T10:47:35;95014.94;;;27.62;37.56
6134;BME280;3098;42.678;23.364;2023-06-19T10:50:08;95007.09;;;28.33;37.28
6134;BME280;3098;42.678;23.364;2023-06-19T10:52:35;94925.09;;;28.01;37.21
6134;BME280;3098;42.678;23.364;2023-06-19T10:55:04;94935.97;;;28.99;34.73
6134;BME280;3098;42.678;23.364;2023-06-19T10:57:32;95019.97;;;28.33;36.85
6134;BME280;3098;42.678;23.364;2023-06-19T10:59:59;94981.94;;;28.65;35.02
6134;BME280;3098;42.678;23.364;2023-06-19T11:02:26;94984.16;;;29.42;35.58
6134;BME280;3098;42.678;23.364;2023-06-19T11:04:53;95001.19;;;29.82;35.89
6134;BME280;3098;42.678;23.364;2023-06-19T11:07:21;95008.78;;;29.90;35.65
6134;BME280;3098;42.678;23.364;2023-06-19T11:09:49;94987.59;;;28.55;37.10
6134;BME280;3098;42.678;23.364;2023-06-19T11:12:21;94962.69;;;27.90;38.01
6134;BME280;3098;42.678;23.364;2023-06-19T11:14:48;95004.88;;;27.05;40.24
6134;BME280;3098;42.678;23.364;2023-06-19T11:17:15;95007.91;;;27.41;40.76
6134;BME280;3098;42.678;23.364;2023-06-19T11:19:43;94973.19;;;27.18;40.49
6134;BME280;3098;42.678;23.364;2023-06-19T11:22:10;94899.44;;;26.56;39.76
6134;BME280;3098;42.678;23.364;2023-06-19T11:24:43;94994.84;;;28.41;39.70
6134;BME280;3098;42.678;23.364;2023-06-19T11:27:17;94985.72;;;28.32;38.84
6134;BME280;3098;42.678;23.364;2023-06-19T11:29:46;94986.59;;;28.06;40.40
6134;BME280;3098;42.678;23.364;2023-06-19T11:32:16;94991.44;;;28.57;39.83
6134;BME280;3098;42.678;23.364;2023-06-19T11:34:48;94953.53;;;27.30;40.94
6134;BME280;3098;42.678;23.364;2023-06-19T11:37:16;94970.72;;;27.77;41.06
6134;BME280;3098;42.678;23.364;2023-06-19T11:39:44;94992.25;;;27.91;41.79
6134;BME280;3098;42.678;23.364;2023-06-19T11:42:12;94987.50;;;28.19;41.75
6134;BME280;3098;42.678;23.364;2023-06-19T11:44:54;94985.25;;;26.91;42.63
6134;BME280;3098;42.678;23.364;2023-06-19T11:47:21;94891.25;;;26.25;43.20
6134;BME280;3098;42.678;23.364;2023-06-19T11:49:48;94914.44;;;26.67;43.18
6134;BME280;3098;42.678;23.364;2023-06-19T11:52:16;94988.19;;;27.30;43.33
6134;BME280;3098;42.678;23.364;2023-06-19T11:54:43;94976.50;;;26.76;43.44
6134;BME280;3098;42.678;23.364;2023-06-19T11:57:10;94966.00;;;26.10;44.60
6134;BME280;3098;42.678;23.364;2023-06-19T11:59:38;94962.03;;;26.22;44.89
6134;BME280;3098;42.678;23.364;2023-06-19T12:02:07;94966.00;;;26.74;44.57
6134;BME280;3098;42.678;23.364;2023-06-19T12:04:35;94913.44;;;27.08;42.86
6134;BME280;3098;42.678;23.364;2023-06-19T12:07:02;94971.19;;;27.72;42.67
6134;BME280;3098;42.678;23.364;2023-06-19T12:09:29;94948.28;;;27.20;43.64
6134;BME280;3098;42.678;23.364;2023-06-19T12:11:57;94830.81;;;26.14;44.29
6134;BME280;3098;42.678;23.364;2023-06-19T12:14:25;94939.00;;;27.40;42.69
6134;BME280;3098;42.678;23.364;2023-06-19T12:16:52;94945.28;;;26.23;44.94
6134;BME280;3098;42.678;23.364;2023-06-19T12:19:21;94935.50;;;25.92;45.62
6134;BME280;3098;42.678;23.364;2023-06-19T12:21:48;94963.47;;;25.93;46.21
6134;BME280;3098;42.678;23.364;2023-06-19T12:24:15;94959.63;;;25.87;46.27
6134;BME280;3098;42.678;23.364;2023-06-19T12:26:42;94895.56;;;25.04;47.14
6134;BME280;3098;42.678;23.364;2023-06-19T12:29:09;94965.03;;;25.46;46.92
6134;BME280;3098;42.678;23.364;2023-06-19T12:31:36;94964.22;;;25.56;47.07
6134;BME280;3098;42.678;23.364;2023-06-19T12:34:03;94968.81;;;26.00;47.35
6134;BME280;3098;42.678;23.364;2023-06-19T12:36:32;94929.75;;;25.87;47.03
6134;BME280;3098;42.678;23.364;2023-06-19T12:38:59;94948.50;;;26.45;45.54
6134;BME280;3098;42.678;23.364;2023-06-19T12:41:28;94957.66;;;26.62;45.89
6134;BME280;3098;42.678;23.364;2023-06-19T12:43:55;94954.44;;;26.97;44.17
6134;BME280;3098;42.678;23.364;2023-06-19T12:46:22;94952.91;;;27.23;43.66
6134;BME280;3098;42.678;23.364;2023-06-19T12:48:49;94946.81;;;26.58;43.94
6134;BME280;3098;42.678;23.364;2023-06-19T12:51:17;94937.91;;;25.87;44.92
6134;BME280;3098;42.678;23.364;2023-06-19T12:53:45;94952.56;;;26.34;45.54
6134;BME280;3098;42.678;23.364;2023-06-19T12:56:12;94892.16;;;26.46;44.47
6134;BME280;3098;42.678;23.364;2023-06-19T12:58:39;94911.31;;;26.39;44.57
6134;BME280;3098;42.678;23.364;2023-06-19T13:01:06;94906.63;;;26.69;44.38
6134;BME280;3098;42.678;23.364;2023-06-19T13:03:33;94938.09;;;26.40;44.08
6134;BME280;3098;42.678;23.364;2023-06-19T13:06:00;94928.53;;;26.59;43.89
6134;BME280;3098;42.678;23.364;2023-06-19T13:08:27;94929.03;;;26.50;44.35
6134;BME280;3098;42.678;23.364;2023-06-19T13:10:55;94869.91;;;26.27;43.66